createdAt,value
2023-05-14T00:01:07.481Z,101768.56
2023-05-14T00:03:34.777Z,101765.41
2023-05-14T00:06:02.047Z,101763.53
2023-05-14T00:08:29.303Z,101767.94
2023-05-14T00:10:56.506Z,101766.66
2023-05-14T00:13:24.108Z,101760.22
2023-05-14T00:15:52.377Z,101753.53
2023-05-14T00:18:21.362Z,101750.94
2023-05-14T00:20:48.587Z,101751.44
2023-05-14T00:23:16.274Z,101756.63
2023-05-14T00:25:43.476Z,101756.09
2023-05-14T00:28:10.760Z,101751.16
2023-05-14T00:30:38.087Z,101749.16
2023-05-14T00:33:05.472Z,101751.69
2023-05-14T00:35:34.395Z,101754.13
2023-05-14T00:38:01.972Z,101755.53
2023-05-14T00:40:29.346Z,101751.63
2023-05-14T00:42:56.788Z,101747.09
2023-05-14T00:45:24.048Z,101752.91
2023-05-14T00:47:53.566Z,101748.94
2023-05-14T00:50:21.384Z,101750.97
2023-05-14T00:52:52.593Z,101747.94
2023-05-14T00:55:22.396Z,101752.28
2023-05-14T00:57:50.631Z,101750.38
2023-05-14T01:00:18.408Z,101755.78
2023-05-14T01:02:45.825Z,101751.84
2023-05-14T01:05:15.675Z,101744.84
2023-05-14T01:07:56.667Z,101738.56
2023-05-14T01:10:29.008Z,101729.13
2023-05-14T01:13:03.490Z,101734.00
2023-05-14T01:15:33.345Z,101732.56
2023-05-14T01:18:05.430Z,101733.81
2023-05-14T01:20:32.972Z,101740.84
2023-05-14T01:23:01.693Z,101741.66
2023-05-14T01:25:29.757Z,101734.66
2023-05-14T01:28:00.970Z,101736.66
2023-05-14T01:30:31.557Z,101731.66
2023-05-14T01:33:02.428Z,101732.59
2023-05-14T01:35:30.575Z,101733.19
2023-05-14T01:37:59.469Z,101731.34
2023-05-14T01:40:29.123Z,101727.97
2023-05-14T01:42:57.278Z,101728.38
2023-05-14T01:45:24.647Z,101731.84
2023-05-14T01:47:51.974Z,101729.81
2023-05-14T01:50:19.465Z,101727.78
2023-05-14T01:52:47.680Z,101730.41
2023-05-14T01:55:16.611Z,101729.91
2023-05-14T01:57:45.205Z,101722.63
2023-05-14T02:00:13.111Z,101722.47
2023-05-14T02:02:40.603Z,101721.69
2023-05-14T02:05:09.456Z,101730.63
2023-05-14T02:07:38.560Z,101719.56
2023-05-14T02:10:07.314Z,101715.16
2023-05-14T02:12:34.766Z,101722.94
2023-05-14T02:15:03.880Z,101720.53
2023-05-14T02:17:31.253Z,101715.97
2023-05-14T02:19:58.513Z,101723.41
2023-05-14T02:22:25.701Z,101720.41
2023-05-14T02:24:53.002Z,101719.94
2023-05-14T02:27:20.252Z,101719.38
2023-05-14T02:29:47.446Z,101716.97
2023-05-14T02:32:16.320Z,101717.16
2023-05-14T02:34:43.560Z,101712.72
2023-05-14T02:37:11.268Z,101716.56
2023-05-14T02:39:38.558Z,101716.44
2023-05-14T02:42:06.222Z,101708.78
2023-05-14T02:44:36.397Z,101711.28
2023-05-14T02:47:03.863Z,101703.25
2023-05-14T02:49:33.860Z,101710.03
2023-05-14T02:52:01.101Z,101710.63
2023-05-14T02:54:28.434Z,101704.16
2023-05-14T02:56:55.662Z,101707.84
2023-05-14T02:59:24.361Z,101702.06
2023-05-14T03:01:52.155Z,101697.47
2023-05-14T03:04:20.112Z,101705.50
2023-05-14T03:06:48.687Z,101704.63
2023-05-14T03:09:15.919Z,101710.53
2023-05-14T03:11:43.152Z,101710.81
2023-05-14T03:14:10.599Z,101709.09
2023-05-14T03:16:37.897Z,101704.59
2023-05-14T03:19:05.154Z,101708.16
2023-05-14T03:21:32.434Z,101716.94
2023-05-14T03:24:01.049Z,101717.16
2023-05-14T03:26:28.561Z,101710.72
2023-05-14T03:28:56.056Z,101716.19
2023-05-14T03:31:23.601Z,101711.78
2023-05-14T03:33:51.046Z,101713.25
2023-05-14T03:36:18.234Z,101714.38
2023-05-14T03:38:46.684Z,101705.84
2023-05-14T03:41:15.568Z,101713.69
2023-05-14T03:43:43.030Z,101700.78
2023-05-14T03:46:10.268Z,101698.25
2023-05-14T03:48:37.507Z,101710.00
2023-05-14T03:51:06.219Z,101706.06
2023-05-14T03:53:33.943Z,101706.88
2023-05-14T03:56:01.131Z,101713.78
2023-05-14T03:58:29.902Z,101708.97
2023-05-14T04:00:58.162Z,101707.81
2023-05-14T04:03:25.506Z,101702.34
2023-05-14T04:05:52.832Z,101708.38
2023-05-14T04:08:21.342Z,101707.41
2023-05-14T04:10:48.590Z,101708.16
2023-05-14T04:13:15.840Z,101714.19
2023-05-14T04:15:44.456Z,101699.69
2023-05-14T04:18:11.946Z,101704.50
2023-05-14T04:20:39.278Z,101699.94
2023-05-14T04:23:06.665Z,101697.03
2023-05-14T04:25:35.108Z,101695.94
2023-05-14T04:28:02.380Z,101697.59
2023-05-14T04:30:32.152Z,101693.69
2023-05-14T04:33:03.396Z,101700.41
2023-05-14T04:35:30.787Z,101698.06
2023-05-14T04:37:57.988Z,101695.47
2023-05-14T04:40:25.417Z,101692.22
2023-05-14T04:42:54.252Z,101684.47
2023-05-14T04:45:21.607Z,101691.34
2023-05-14T04:47:49.210Z,101680.91
2023-05-14T04:50:18.076Z,101679.31
2023-05-14T04:52:45.532Z,101690.06
2023-05-14T04:55:12.792Z,101686.59
2023-05-14T04:57:40.078Z,101681.28
2023-05-14T05:00:08.396Z,101683.16
2023-05-14T05:02:35.771Z,101687.47
2023-05-14T05:05:03.887Z,101689.13
2023-05-14T05:07:32.296Z,101682.19
2023-05-14T05:09:59.388Z,101685.63
2023-05-14T05:12:26.691Z,101692.50
2023-05-14T05:14:53.924Z,101690.00
2023-05-14T05:17:21.213Z,101674.22
2023-05-14T05:19:48.652Z,101684.63
2023-05-14T05:22:16.112Z,101686.38
2023-05-14T05:24:44.709Z,101680.59
2023-05-14T05:27:11.939Z,101687.34
2023-05-14T05:29:39.141Z,101682.97
2023-05-14T05:32:07.591Z,101672.28
2023-05-14T05:34:34.890Z,101672.22
2023-05-14T05:37:02.149Z,101668.59
2023-05-14T05:39:30.818Z,101669.53
2023-05-14T05:41:59.457Z,101678.31
2023-05-14T05:44:26.690Z,101671.28
2023-05-14T05:46:54.010Z,101666.72
2023-05-14T05:49:22.476Z,101668.66
2023-05-14T05:51:50.671Z,101664.00
2023-05-14T05:54:17.982Z,101657.44
2023-05-14T05:56:45.259Z,101661.56
2023-05-14T05:59:13.885Z,101664.13
2023-05-14T06:01:41.172Z,101662.47
2023-05-14T06:04:08.465Z,101656.69
2023-05-14T06:06:35.834Z,101657.28
2023-05-14T06:09:03.298Z,101661.69
2023-05-14T06:11:30.505Z,101664.06
2023-05-14T06:13:58.677Z,101669.41
2023-05-14T06:16:27.603Z,101660.75
2023-05-14T06:18:55.000Z,101662.91
2023-05-14T06:21:22.326Z,101665.47
2023-05-14T06:23:49.606Z,101671.97
2023-05-14T06:26:16.822Z,101668.78
2023-05-14T06:28:47.955Z,101668.50
2023-05-14T06:31:15.171Z,101664.63
2023-05-14T06:33:43.861Z,101670.44
2023-05-14T06:36:11.271Z,101660.53
2023-05-14T06:38:38.517Z,101670.00
2023-05-14T06:41:05.871Z,101669.78
2023-05-14T06:43:33.056Z,101669.31
2023-05-14T06:46:00.257Z,101656.22
2023-05-14T06:48:27.637Z,101658.16
2023-05-14T06:50:57.722Z,101660.78
2023-05-14T06:53:24.979Z,101658.84
2023-05-14T06:55:52.336Z,101651.66
2023-05-14T06:58:19.586Z,101656.84
2023-05-14T07:00:46.779Z,101653.47
2023-05-14T07:03:14.173Z,101657.66
2023-05-14T07:05:41.478Z,101654.81
2023-05-14T07:08:12.663Z,101652.63
2023-05-14T07:10:39.911Z,101652.81
2023-05-14T07:13:08.601Z,101657.81
2023-05-14T07:15:35.856Z,101647.56
2023-05-14T07:18:03.691Z,101652.59
2023-05-14T07:20:30.696Z,101645.69
2023-05-14T07:22:57.774Z,101646.38
2023-05-14T07:25:26.380Z,101644.38
2023-05-14T07:27:53.608Z,101641.91
2023-05-14T07:30:21.463Z,101637.72
2023-05-14T07:32:48.932Z,101641.09
2023-05-14T07:35:16.319Z,101634.78
2023-05-14T07:37:43.874Z,101634.88
2023-05-14T07:40:11.439Z,101628.66
2023-05-14T07:42:40.086Z,101623.78
2023-05-14T07:45:08.793Z,101622.44
2023-05-14T07:47:36.089Z,101616.06
2023-05-14T07:50:03.593Z,101619.09
2023-05-14T07:52:30.873Z,101619.69
2023-05-14T07:54:58.134Z,101609.91
2023-05-14T07:57:25.321Z,101609.00
2023-05-14T07:59:56.110Z,101606.78
2023-05-14T08:02:24.846Z,101600.41
2023-05-14T08:04:52.589Z,101604.22
2023-05-14T08:07:19.602Z,101602.22
2023-05-14T08:09:48.077Z,101599.38
2023-05-14T08:12:15.310Z,101602.47
2023-05-14T08:14:43.594Z,101600.97
2023-05-14T08:17:12.640Z,101594.00
2023-05-14T08:19:40.041Z,101594.28
2023-05-14T08:22:07.278Z,101594.13
2023-05-14T08:24:34.574Z,101590.72
2023-05-14T08:27:01.813Z,101583.50
2023-05-14T08:29:29.020Z,101581.63
2023-05-14T08:31:56.256Z,101581.19
2023-05-14T08:34:24.906Z,101569.56
2023-05-14T08:36:53.179Z,101573.56
2023-05-14T08:39:20.525Z,101570.09
2023-05-14T08:41:48.198Z,101565.72
2023-05-14T08:44:20.546Z,101564.69
2023-05-14T08:46:49.810Z,101569.19
2023-05-14T08:49:28.890Z,101557.97
2023-05-14T08:51:58.115Z,101557.09
2023-05-14T08:54:25.968Z,101564.03
2023-05-14T08:56:55.799Z,101557.88
2023-05-14T08:59:23.041Z,101551.41
2023-05-14T09:01:54.215Z,101552.00
2023-05-14T09:04:23.967Z,101542.47
2023-05-14T09:06:53.051Z,101546.69
2023-05-14T09:09:23.260Z,101534.97
2023-05-14T09:11:51.796Z,101534.56
2023-05-14T09:14:23.502Z,101533.56
2023-05-14T09:16:51.470Z,101522.56
2023-05-14T09:19:20.077Z,101523.28
2023-05-14T09:21:48.590Z,101516.41
2023-05-14T09:24:22.719Z,101517.88
2023-05-14T09:26:51.236Z,101512.31
2023-05-14T09:29:18.943Z,101505.38
2023-05-14T09:31:46.231Z,101511.84
2023-05-14T09:34:24.103Z,101503.84
2023-05-14T09:36:56.212Z,101495.78
2023-05-14T09:39:25.236Z,101496.81
2023-05-14T09:41:52.514Z,101498.09
2023-05-14T09:44:20.370Z,101491.78
2023-05-14T09:46:48.366Z,101497.16
2023-05-14T09:49:16.681Z,101478.47
2023-05-14T09:51:44.093Z,101482.94
2023-05-14T09:54:12.234Z,101483.47
2023-05-14T09:56:40.997Z,101476.09
2023-05-14T09:59:08.299Z,101472.34
2023-05-14T10:01:39.211Z,101480.06
2023-05-14T10:04:07.984Z,101472.41
2023-05-14T10:06:37.793Z,101465.00
2023-05-14T10:09:09.890Z,101468.91
2023-05-14T10:11:38.767Z,101458.53
2023-05-14T10:14:09.998Z,101458.00
2023-05-14T10:16:43.616Z,101464.00
2023-05-14T10:19:12.982Z,101462.66
2023-05-14T10:21:44.847Z,101447.63
2023-05-14T10:24:12.660Z,101454.59
2023-05-14T10:26:41.244Z,101463.34
2023-05-14T10:29:11.006Z,101456.06
2023-05-14T10:31:49.187Z,101459.34
2023-05-14T10:34:33.306Z,101458.94
2023-05-14T10:37:03.407Z,101441.63
2023-05-14T10:39:44.178Z,101439.78
2023-05-14T10:42:15.143Z,101444.97
2023-05-14T10:44:52.618Z,101440.88
2023-05-14T10:47:22.882Z,101436.91
2023-05-14T10:49:52.940Z,101439.25
2023-05-14T10:52:21.209Z,101430.75
2023-05-14T10:54:53.420Z,101435.91
2023-05-14T10:57:22.585Z,101431.75
2023-05-14T10:59:54.396Z,101431.97
2023-05-14T11:02:24.081Z,101429.28
2023-05-14T11:05:00.350Z,101419.94
2023-05-14T11:07:29.198Z,101430.16
2023-05-14T11:10:01.021Z,101419.53
2023-05-14T11:12:29.107Z,101417.78
2023-05-14T11:14:59.680Z,101416.69
2023-05-14T11:17:27.982Z,101412.06
2023-05-14T11:19:56.191Z,101401.22
2023-05-14T11:22:23.499Z,101403.06
2023-05-14T11:24:51.822Z,101406.53
2023-05-14T11:27:20.596Z,101403.41
2023-05-14T11:29:48.668Z,101407.34
2023-05-14T11:32:18.026Z,101404.28
2023-05-14T11:34:48.303Z,101398.81
2023-05-14T11:37:16.413Z,101401.22
2023-05-14T11:39:48.002Z,101389.94
2023-05-14T11:42:15.654Z,101384.16
2023-05-14T11:44:42.851Z,101386.44
2023-05-14T11:47:10.806Z,101384.41
2023-05-14T11:49:39.456Z,101384.94
2023-05-14T11:52:08.072Z,101378.22
2023-05-14T11:54:35.376Z,101373.78
2023-05-14T11:57:08.405Z,101368.59
2023-05-14T11:59:36.088Z,101366.88
2023-05-14T12:02:04.114Z,101360.41
2023-05-14T12:04:31.767Z,101359.25
2023-05-14T12:07:07.660Z,101353.88
2023-05-14T12:09:36.967Z,101351.88
2023-05-14T12:12:09.174Z,101353.25
2023-05-14T12:14:38.526Z,101344.31
2023-05-14T12:17:12.308Z,101339.00
2023-05-14T12:19:40.350Z,101337.59
2023-05-14T12:22:09.997Z,101335.44
2023-05-14T12:24:37.379Z,101332.56
2023-05-14T12:27:05.769Z,101334.31
2023-05-14T12:29:36.009Z,101336.25
2023-05-14T12:32:03.357Z,101328.94
2023-05-14T12:34:30.555Z,101330.69
2023-05-14T12:36:57.787Z,101321.41
2023-05-14T12:39:26.360Z,101325.84
2023-05-14T12:41:53.582Z,101328.53
2023-05-14T12:44:20.795Z,101322.72
2023-05-14T12:46:48.085Z,101316.91
2023-05-14T12:49:15.607Z,101317.88
2023-05-14T12:51:42.625Z,101304.69
2023-05-14T12:54:09.755Z,101295.03
2023-05-14T12:56:39.830Z,101300.06
2023-05-14T12:59:07.057Z,101302.78
2023-05-14T13:01:34.395Z,101300.38
2023-05-14T13:04:01.542Z,101302.50
2023-05-14T13:06:28.799Z,101305.69
2023-05-14T13:08:56.005Z,101298.22
2023-05-14T13:11:23.210Z,101297.81
2023-05-14T13:13:51.808Z,101299.47
2023-05-14T13:16:19.191Z,101297.78
2023-05-14T13:18:46.559Z,101288.78
2023-05-14T13:21:13.790Z,101290.97
2023-05-14T13:23:43.093Z,101290.59
2023-05-14T13:26:11.307Z,101285.19
2023-05-14T13:28:38.484Z,101281.09
2023-05-14T13:31:09.488Z,101281.25
2023-05-14T13:33:38.330Z,101279.41
2023-05-14T13:36:06.095Z,101275.22
2023-05-14T13:38:33.582Z,101268.81
2023-05-14T13:41:01.049Z,101259.31
2023-05-14T13:43:30.267Z,101266.94
2023-05-14T13:45:57.832Z,101257.06
2023-05-14T13:48:26.676Z,101260.84
2023-05-14T13:50:54.143Z,101255.81
2023-05-14T13:53:22.243Z,101255.06
2023-05-14T13:55:49.670Z,101255.25
2023-05-14T13:58:17.212Z,101253.81
2023-05-14T14:00:44.444Z,101250.66
2023-05-14T14:03:12.009Z,101249.44
2023-05-14T14:05:40.434Z,101246.44
2023-05-14T14:08:21.879Z,101249.69
2023-05-14T14:10:52.370Z,101251.84
2023-05-14T14:13:19.683Z,101238.53
2023-05-14T14:15:47.250Z,101240.41
2023-05-14T14:18:14.277Z,101236.47
2023-05-14T14:20:42.978Z,101239.19
2023-05-14T14:23:10.227Z,101242.19
2023-05-14T14:25:37.565Z,101235.38
2023-05-14T14:28:05.279Z,101230.78
2023-05-14T14:30:32.726Z,101233.03
2023-05-14T14:32:59.947Z,101231.09
2023-05-14T14:35:27.307Z,101232.91
2023-05-14T14:37:56.190Z,101234.19
2023-05-14T14:40:23.493Z,101230.38
2023-05-14T14:42:50.847Z,101230.25
2023-05-14T14:45:18.307Z,101232.34
2023-05-14T14:47:46.529Z,101224.50
2023-05-14T14:50:14.059Z,101231.38
2023-05-14T14:52:42.663Z,101223.63
2023-05-14T14:55:12.451Z,101222.63
2023-05-14T14:57:39.728Z,101223.50
2023-05-14T15:00:07.906Z,101220.00
2023-05-14T15:02:35.529Z,101218.94
2023-05-14T15:05:02.814Z,101216.59
2023-05-14T15:07:30.098Z,101220.34
2023-05-14T15:09:57.591Z,101213.91
2023-05-14T15:12:26.018Z,101212.25
2023-05-14T15:14:53.132Z,101208.91
2023-05-14T15:17:20.595Z,101206.88
2023-05-14T15:19:47.818Z,101207.91
2023-05-14T15:22:15.200Z,101202.31
2023-05-14T15:24:42.396Z,101197.34
2023-05-14T15:27:09.633Z,101194.25
2023-05-14T15:29:39.610Z,101191.34
2023-05-14T15:32:07.210Z,101190.31
2023-05-14T15:34:34.448Z,101187.00
2023-05-14T15:37:01.928Z,101184.09
2023-05-14T15:39:30.113Z,101178.69
2023-05-14T15:41:57.579Z,101180.78
2023-05-14T15:44:24.763Z,101176.19
2023-05-14T15:46:55.080Z,101182.00
2023-05-14T15:49:22.375Z,101170.81
2023-05-14T15:51:49.668Z,101168.72
2023-05-14T15:54:17.189Z,101165.63
2023-05-14T15:56:44.269Z,101162.94
2023-05-14T15:59:11.661Z,101169.97
2023-05-14T16:01:38.923Z,101164.16
2023-05-14T16:04:07.667Z,101156.69
2023-05-14T16:06:34.983Z,101151.31
2023-05-14T16:09:02.341Z,101160.44
2023-05-14T16:11:30.161Z,101155.03
2023-05-14T16:13:57.351Z,101155.00
2023-05-14T16:16:24.667Z,101154.63
2023-05-14T16:18:51.978Z,101150.88
2023-05-14T16:21:20.577Z,101147.59
2023-05-14T16:23:47.805Z,101138.47
2023-05-14T16:26:15.072Z,101142.38
2023-05-14T16:28:42.363Z,101147.53
2023-05-14T16:31:12.114Z,101137.81
2023-05-14T16:35:57.375Z,101137.81
2023-05-14T16:38:26.062Z,101136.75
2023-05-14T16:40:53.170Z,101137.19
2023-05-14T16:43:20.440Z,101140.31
2023-05-14T16:45:47.712Z,101143.00
2023-05-14T16:48:14.977Z,101137.00
2023-05-14T16:50:42.322Z,101134.50
2023-05-14T16:53:09.543Z,101141.09
2023-05-14T16:55:40.376Z,101139.84
2023-05-14T16:58:08.860Z,101133.00
2023-05-14T17:00:36.120Z,101134.66
2023-05-14T17:03:03.478Z,101138.81
2023-05-14T17:05:30.747Z,101129.47
2023-05-14T17:07:57.936Z,101137.31
2023-05-14T17:10:26.509Z,101135.44
2023-05-14T17:12:55.101Z,101137.53
2023-05-14T17:15:22.411Z,101130.88
2023-05-14T17:17:49.753Z,101129.66
2023-05-14T17:20:18.368Z,101134.84
2023-05-14T17:22:45.672Z,101126.72
2023-05-14T17:25:12.906Z,101125.41
2023-05-14T17:27:40.164Z,101128.28
2023-05-14T17:30:10.410Z,101130.94
2023-05-14T17:32:37.732Z,101129.91
2023-05-14T17:35:05.852Z,101132.94
2023-05-14T17:37:33.059Z,101122.19
2023-05-14T17:40:00.287Z,101127.47
2023-05-14T17:42:27.801Z,101126.97
2023-05-14T17:44:55.043Z,101129.59
2023-05-14T17:47:24.686Z,101133.09
2023-05-14T17:49:51.989Z,101133.31
2023-05-14T17:52:21.340Z,101126.75
2023-05-14T17:54:51.389Z,101135.97
2023-05-14T17:57:20.361Z,101129.59
2023-05-14T17:59:47.571Z,101130.69
2023-05-14T18:02:15.827Z,101139.03
2023-05-14T18:04:44.459Z,101134.16
2023-05-14T18:07:11.739Z,101138.47
2023-05-14T18:09:38.978Z,101134.63
2023-05-14T18:12:07.307Z,101136.75
2023-05-14T18:14:34.755Z,101130.31
2023-05-14T18:17:02.132Z,101135.16
2023-05-14T18:19:30.190Z,101132.44
2023-05-14T18:21:58.811Z,101139.41
2023-05-14T18:24:26.079Z,101137.81
2023-05-14T18:26:54.098Z,101140.44
2023-05-14T18:29:21.366Z,101149.75
2023-05-14T18:31:48.783Z,101143.25
2023-05-14T18:34:16.064Z,101138.81
2023-05-14T18:36:43.393Z,101135.47
2023-05-14T18:39:12.007Z,101135.25
2023-05-14T18:41:39.241Z,101134.94
2023-05-14T18:44:06.482Z,101139.25
2023-05-14T18:46:33.935Z,101136.41
2023-05-14T18:49:01.180Z,101147.22
2023-05-14T18:51:28.389Z,101140.81
2023-05-14T18:53:55.610Z,101146.03
2023-05-14T18:56:24.260Z,101144.41
2023-05-14T18:58:52.460Z,101142.44
2023-05-14T19:01:19.658Z,101144.63
2023-05-14T19:03:47.054Z,101147.94
2023-05-14T19:06:14.416Z,101135.31
2023-05-14T19:08:43.211Z,101144.91
2023-05-14T19:11:13.580Z,101152.75
2023-05-14T19:13:44.634Z,101147.72
2023-05-14T19:16:12.363Z,101147.06
2023-05-14T19:18:39.507Z,101147.13
2023-05-14T19:21:06.912Z,101146.94
2023-05-14T19:23:34.196Z,101154.97
2023-05-14T19:26:01.497Z,101154.34
2023-05-14T19:28:28.734Z,101146.78
2023-05-14T19:30:57.565Z,101151.66
2023-05-14T19:33:24.816Z,101152.13
2023-05-14T19:35:53.057Z,101145.81
2023-05-14T19:38:21.052Z,101141.13
2023-05-14T19:40:48.337Z,101154.78
2023-05-14T19:43:15.547Z,101143.59
2023-05-14T19:45:42.996Z,101142.41
2023-05-14T19:48:11.649Z,101141.44
2023-05-14T19:50:38.970Z,101141.47
2023-05-14T19:53:06.140Z,101132.78
2023-05-14T19:55:33.341Z,101134.81
2023-05-14T19:58:00.537Z,101137.78
2023-05-14T20:00:28.080Z,101135.81
2023-05-14T20:02:55.581Z,101136.22
2023-05-14T20:05:24.454Z,101140.44
2023-05-14T20:07:51.887Z,101130.59
2023-05-14T20:10:19.688Z,101145.78
2023-05-14T20:12:47.137Z,101141.75
2023-05-14T20:15:14.673Z,101137.91
2023-05-14T20:17:41.842Z,101135.03
2023-05-14T20:20:09.518Z,101135.28
2023-05-14T20:22:39.503Z,101129.34
2023-05-14T20:25:07.310Z,101128.41
2023-05-14T20:27:35.884Z,101130.69
2023-05-14T20:30:04.521Z,101126.88
2023-05-14T20:32:34.166Z,101125.31
2023-05-14T20:35:01.702Z,101128.59
2023-05-14T20:37:29.482Z,101119.13
2023-05-14T20:39:58.208Z,101114.72
2023-05-14T20:42:26.235Z,101118.72
2023-05-14T20:44:54.287Z,101113.06
2023-05-14T20:47:21.647Z,101112.34
2023-05-14T20:49:48.839Z,101106.41
2023-05-14T20:52:16.324Z,101103.19
2023-05-14T20:54:43.927Z,101108.38
2023-05-14T20:57:15.327Z,101092.25
2023-05-14T20:59:42.915Z,101090.63
2023-05-14T21:02:10.370Z,101089.63
2023-05-14T21:04:38.205Z,101089.53
2023-05-14T21:07:05.558Z,101086.13
2023-05-14T21:09:32.878Z,101084.78
2023-05-14T21:12:00.263Z,101075.50
2023-05-14T21:14:29.062Z,101073.63
2023-05-14T21:16:56.286Z,101075.34
2023-05-14T21:19:23.562Z,101074.63
2023-05-14T21:21:51.239Z,101071.53
2023-05-14T21:24:18.432Z,101072.50
2023-05-14T21:26:46.108Z,101067.16
2023-05-14T21:29:13.640Z,101072.13
2023-05-14T21:31:42.395Z,101068.25
2023-05-14T21:34:09.810Z,101076.22
2023-05-14T21:36:37.365Z,101071.69
2023-05-14T21:39:05.793Z,101072.53
2023-05-14T21:41:33.027Z,101070.78
2023-05-14T21:44:00.323Z,101069.78
2023-05-14T21:46:27.831Z,101060.00
2023-05-14T21:48:56.925Z,101069.03
2023-05-14T21:51:24.282Z,101060.53
2023-05-14T21:53:51.530Z,101059.75
2023-05-14T21:56:18.775Z,101067.72
2023-05-14T21:58:45.966Z,101060.44
2023-05-14T22:01:13.262Z,101055.41
2023-05-14T22:03:40.526Z,101053.13
2023-05-14T22:06:09.238Z,101048.59
2023-05-14T22:08:36.707Z,101050.47
2023-05-14T22:11:04.591Z,101050.53
2023-05-14T22:13:32.873Z,101049.63
2023-05-14T22:16:09.062Z,101037.28
2023-05-14T22:18:40.508Z,101044.13
2023-05-14T22:21:09.070Z,101038.13
2023-05-14T22:23:36.330Z,101038.72
2023-05-14T22:26:04.462Z,101039.25
2023-05-14T22:28:31.674Z,101033.63
2023-05-14T22:31:00.097Z,101036.28
2023-05-14T22:33:27.388Z,101039.44
2023-05-14T22:35:54.568Z,101032.50
2023-05-14T22:38:23.152Z,101029.88
2023-05-14T22:40:51.822Z,101032.50
2023-05-14T22:43:19.029Z,101030.28
2023-05-14T22:45:46.364Z,101030.72
2023-05-14T22:48:13.566Z,101031.13
2023-05-14T22:50:40.983Z,101026.78
2023-05-14T22:53:08.305Z,101028.94
2023-05-14T22:55:37.020Z,101023.53
2023-05-14T22:58:04.484Z,101021.03
2023-05-14T23:00:31.758Z,101021.06
2023-05-14T23:02:59.041Z,101012.72
2023-05-14T23:05:26.665Z,101009.91
2023-05-14T23:07:54.177Z,101010.59
2023-05-14T23:10:22.884Z,101004.13
2023-05-14T23:12:51.480Z,101001.50
2023-05-14T23:15:18.739Z,100998.69
2023-05-14T23:17:46.396Z,100997.16
2023-05-14T23:20:13.642Z,100995.78
2023-05-14T23:22:40.905Z,100998.88
2023-05-14T23:25:09.207Z,100995.41
2023-05-14T23:27:36.673Z,100988.13
2023-05-14T23:30:06.762Z,100981.13
2023-05-14T23:32:34.048Z,100993.41
2023-05-14T23:35:01.402Z,100981.41
2023-05-14T23:37:28.792Z,100981.22
2023-05-14T23:39:56.286Z,100979.78
2023-05-14T23:42:23.465Z,100966.34
2023-05-14T23:44:50.801Z,100958.91
2023-05-14T23:47:19.480Z,100959.09
2023-05-14T23:49:46.915Z,100956.56
2023-05-14T23:52:14.122Z,100957.19
2023-05-14T23:54:41.398Z,100954.16
2023-05-14T23:57:08.692Z,100951.00
2023-05-14T23:59:37.072Z,100941.38
